sensor_id;sensor_type;location;lat;lon;timestamp;P1;durP1;ratioP1;P2;durP2;ratioP2
28988;SDS011;16089;59.952;10.818;2023-02-28T19:42:12;2.33;;;0.80;;
28988;SDS011;16089;59.952;10.818;2023-02-28T19:44:39;3.08;;;0.70;;
28988;SDS011;16089;59.952;10.818;2023-02-28T19:47:06;5.22;;;0.80;;
28988;SDS011;16089;59.952;10.818;2023-02-28T19:49:32;2.05;;;0.80;;
28988;SDS011;16089;59.952;10.818;2023-02-28T19:51:59;2.38;;;0.60;;
28988;SDS011;16089;59.952;10.818;2023-02-28T19:54:39;1.83;;;0.50;;
28988;SDS011;16089;59.952;10.818;2023-02-28T19:57:06;1.70;;;0.60;;
28988;SDS011;16089;59.952;10.818;2023-02-28T19:59:34;2.13;;;0.80;;
28988;SDS011;16089;59.952;10.818;2023-02-28T20:02:00;1.08;;;0.50;;
28988;SDS011;16089;59.952;10.818;2023-02-28T20:04:26;1.83;;;0.60;;
28988;SDS011;16089;59.952;10.818;2023-02-28T20:06:53;1.50;;;0.50;;
28988;SDS011;16089;59.952;10.818;2023-02-28T20:09:19;1.52;;;0.60;;
28988;SDS011;16089;59.952;10.818;2023-02-28T20:11:46;1.25;;;0.52;;
28988;SDS011;16089;59.952;10.818;2023-02-28T20:14:12;2.25;;;0.65;;
28988;SDS011;16089;59.952;10.818;2023-02-28T20:16:40;1.55;;;0.40;;
28988;SDS011;16089;59.952;10.818;2023-02-28T20:19:06;1.23;;;0.40;;
28988;SDS011;16089;59.952;10.818;2023-02-28T20:21:34;1.90;;;0.50;;
28988;SDS011;16089;59.952;10.818;2023-02-28T20:24:01;1.40;;;0.50;;
28988;SDS011;16089;59.952;10.818;2023-02-28T20:26:28;1.63;;;0.50;;
28988;SDS011;16089;59.952;10.818;2023-02-28T20:28:54;1.48;;;0.40;;
28988;SDS011;16089;59.952;10.818;2023-02-28T20:31:21;2.55;;;0.45;;
28988;SDS011;16089;59.952;10.818;2023-02-28T20:33:50;5.35;;;2.17;;
28988;SDS011;16089;59.952;10.818;2023-02-28T20:36:17;11.50;;;5.18;;
28988;SDS011;16089;59.952;10.818;2023-02-28T20:38:45;8.30;;;3.40;;
28988;SDS011;16089;59.952;10.818;2023-02-28T20:41:12;4.40;;;1.77;;
28988;SDS011;16089;59.952;10.818;2023-02-28T20:43:40;2.30;;;0.70;;
28988;SDS011;16089;59.952;10.818;2023-02-28T20:46:10;2.63;;;0.63;;
28988;SDS011;16089;59.952;10.818;2023-02-28T20:48:38;0.50;;;0.20;;
28988;SDS011;16089;59.952;10.818;2023-02-28T20:51:06;2.08;;;0.30;;
28988;SDS011;16089;59.952;10.818;2023-02-28T20:53:38;1.02;;;0.30;;
28988;SDS011;16089;59.952;10.818;2023-02-28T20:56:05;1.83;;;0.30;;
28988;SDS011;16089;59.952;10.818;2023-02-28T20:58:33;1.42;;;0.70;;
28988;SDS011;16089;59.952;10.818;2023-02-28T21:01:02;1.10;;;0.30;;
28988;SDS011;16089;59.952;10.818;2023-02-28T21:03:43;1.15;;;0.50;;
28988;SDS011;16089;59.952;10.818;2023-02-28T21:06:11;1.90;;;0.30;;
28988;SDS011;16089;59.952;10.818;2023-02-28T21:08:38;1.23;;;0.38;;
28988;SDS011;16089;59.952;10.818;2023-02-28T21:11:11;0.73;;;0.22;;
28988;SDS011;16089;59.952;10.818;2023-02-28T21:13:38;0.88;;;0.20;;
28988;SDS011;16089;59.952;10.818;2023-02-28T21:16:06;0.50;;;0.20;;
28988;SDS011;16089;59.952;10.818;2023-02-28T21:18:41;0.47;;;0.22;;
28988;SDS011;16089;59.952;10.818;2023-02-28T21:21:10;0.63;;;0.20;;
28988;SDS011;16089;59.952;10.818;2023-02-28T21:23:38;0.45;;;0.20;;
28988;SDS011;16089;59.952;10.818;2023-02-28T21:26:07;0.17;;;0.10;;
28988;SDS011;16089;59.952;10.818;2023-02-28T21:28:34;0.90;;;0.28;;
28988;SDS011;16089;59.952;10.818;2023-02-28T21:31:03;0.70;;;0.20;;
28988;SDS011;16089;59.952;10.818;2023-02-28T21:33:30;2.25;;;0.20;;
28988;SDS011;16089;59.952;10.818;2023-02-28T21:36:00;0.47;;;0.20;;
28988;SDS011;16089;59.952;10.818;2023-02-28T21:38:30;2.17;;;0.20;;
28988;SDS011;16089;59.952;10.818;2023-02-28T21:41:03;0.40;;;0.17;;
28988;SDS011;16089;59.952;10.818;2023-02-28T21:43:29;0.30;;;0.10;;
28988;SDS011;16089;59.952;10.818;2023-02-28T21:46:02;0.55;;;0.25;;
28988;SDS011;16089;59.952;10.818;2023-02-28T21:48:30;1.20;;;0.50;;
28988;SDS011;16089;59.952;10.818;2023-02-28T21:51:03;0.13;;;0.10;;
28988;SDS011;16089;59.952;10.818;2023-02-28T21:53:33;0.68;;;0.10;;
28988;SDS011;16089;59.952;10.818;2023-02-28T21:56:05;0.40;;;0.20;;
28988;SDS011;16089;59.952;10.818;2023-02-28T21:58:32;1.05;;;0.40;;
28988;SDS011;16089;59.952;10.818;2023-02-28T22:01:02;0.32;;;0.20;;
28988;SDS011;16089;59.952;10.818;2023-02-28T22:03:29;0.75;;;0.20;;
28988;SDS011;16089;59.952;10.818;2023-02-28T22:05:55;0.50;;;0.20;;
28988;SDS011;16089;59.952;10.818;2023-02-28T22:08:32;1.10;;;0.20;;
28988;SDS011;16089;59.952;10.818;2023-02-28T22:11:01;0.25;;;0.20;;
28988;SDS011;16089;59.952;10.818;2023-02-28T22:13:33;0.47;;;0.20;;
28988;SDS011;16089;59.952;10.818;2023-02-28T22:16:02;0.77;;;0.20;;
28988;SDS011;16089;59.952;10.818;2023-02-28T22:18:30;1.58;;;0.30;;
28988;SDS011;16089;59.952;10.818;2023-02-28T22:20:56;0.30;;;0.20;;
28988;SDS011;16089;59.952;10.818;2023-02-28T22:23:23;0.47;;;0.20;;
28988;SDS011;16089;59.952;10.818;2023-02-28T22:25:49;0.52;;;0.20;;
28988;SDS011;16089;59.952;10.818;2023-02-28T22:28:17;0.73;;;0.28;;
28988;SDS011;16089;59.952;10.818;2023-02-28T22:30:45;1.30;;;0.40;;
28988;SDS011;16089;59.952;10.818;2023-02-28T22:33:12;1.10;;;0.30;;
28988;SDS011;16089;59.952;10.818;2023-02-28T22:35:38;1.60;;;0.55;;
28988;SDS011;16089;59.952;10.818;2023-02-28T22:38:05;1.65;;;0.50;;
28988;SDS011;16089;59.952;10.818;2023-02-28T22:40:31;2.53;;;0.40;;
28988;SDS011;16089;59.952;10.818;2023-02-28T22:42:58;0.47;;;0.30;;
28988;SDS011;16089;59.952;10.818;2023-02-28T22:45:24;2.47;;;0.40;;
28988;SDS011;16089;59.952;10.818;2023-02-28T22:47:52;0.73;;;0.20;;
28988;SDS011;16089;59.952;10.818;2023-02-28T22:50:19;0.57;;;0.20;;
28988;SDS011;16089;59.952;10.818;2023-02-28T22:52:45;0.15;;;0.13;;
28988;SDS011;16089;59.952;10.818;2023-02-28T22:55:12;0.68;;;0.30;;
28988;SDS011;16089;59.952;10.818;2023-02-28T22:57:38;0.38;;;0.20;;
28988;SDS011;16089;59.952;10.818;2023-02-28T23:00:05;0.50;;;0.20;;
28988;SDS011;16089;59.952;10.818;2023-02-28T23:02:33;1.67;;;0.30;;
28988;SDS011;16089;59.952;10.818;2023-02-28T23:05:01;1.13;;;0.40;;
28988;SDS011;16089;59.952;10.818;2023-02-28T23:07:28;0.65;;;0.30;;
28988;SDS011;16089;59.952;10.818;2023-02-28T23:09:54;1.25;;;0.30;;
28988;SDS011;16089;59.952;10.818;2023-02-28T23:12:20;2.33;;;0.32;;
28988;SDS011;16089;59.952;10.818;2023-02-28T23:14:47;0.50;;;0.20;;
28988;SDS011;16089;59.952;10.818;2023-02-28T23:17:13;0.85;;;0.30;;
28988;SDS011;16089;59.952;10.818;2023-02-28T23:19:39;0.80;;;0.20;;
28988;SDS011;16089;59.952;10.818;2023-02-28T23:22:07;1.10;;;0.30;;
28988;SDS011;16089;59.952;10.818;2023-02-28T23:24:34;0.25;;;0.20;;
28988;SDS011;16089;59.952;10.818;2023-02-28T23:27:01;0.77;;;0.28;;
28988;SDS011;16089;59.952;10.818;2023-02-28T23:29:28;2.33;;;0.22;;
28988;SDS011;16089;59.952;10.818;2023-02-28T23:31:55;0.55;;;0.20;;
28988;SDS011;16089;59.952;10.818;2023-02-28T23:34:21;0.28;;;0.20;;
28988;SDS011;16089;59.952;10.818;2023-02-28T23:36:50;1.48;;;0.22;;
28988;SDS011;16089;59.952;10.818;2023-02-28T23:39:18;0.90;;;0.20;;
28988;SDS011;16089;59.952;10.818;2023-02-28T23:41:45;0.30;;;0.10;;
28988;SDS011;16089;59.952;10.818;2023-02-28T23:44:11;0.82;;;0.30;;
28988;SDS011;16089;59.952;10.818;2023-02-28T23:46:41;0.50;;;0.20;;
28988;SDS011;16089;59.952;10.818;2023-02-28T23:49:07;2.53;;;0.40;;
28988;SDS011;16089;59.952;10.818;2023-02-28T23:51:34;1.10;;;0.30;;
28988;SDS011;16089;59.952;10.818;2023-02-28T23:54:00;1.13;;;0.30;;
28988;SDS011;16089;59.952;10.818;2023-02-28T23:56:29;0.82;;;0.25;;
28988;SDS011;16089;59.952;10.818;2023-02-28T23:58:55;0.70;;;0.22;;
